createdAt,value
2022-12-07T00:01:46.627Z,17.70
2022-12-07T00:04:16.243Z,14.02
2022-12-07T00:06:45.041Z,18.35
2022-12-07T00:09:14.758Z,16.10
2022-12-07T00:11:41.674Z,17.80
2022-12-07T00:14:11.751Z,17.40
2022-12-07T00:16:38.324Z,24.10
2022-12-07T00:19:05.210Z,15.70
2022-12-07T00:21:34.522Z,17.30
2022-12-07T00:24:01.983Z,16.15
2022-12-07T00:26:37.449Z,15.40
2022-12-07T00:29:07.387Z,16.05
2022-12-07T00:31:39.516Z,14.93
2022-12-07T00:34:08.255Z,16.02
2022-12-07T00:36:34.838Z,17.33
2022-12-07T00:39:03.056Z,17.85
2022-12-07T00:41:31.024Z,19.23
2022-12-07T00:43:57.698Z,14.20
2022-12-07T00:46:25.279Z,19.27
2022-12-07T00:48:52.838Z,16.00
2022-12-07T00:51:21.091Z,15.40
2022-12-07T00:53:48.047Z,19.25
2022-12-07T00:56:41.139Z,18.63
2022-12-07T00:59:07.840Z,14.68
2022-12-07T01:01:38.015Z,19.13
2022-12-07T01:04:05.377Z,14.93
2022-12-07T01:06:32.319Z,18.90
2022-12-07T01:08:59.245Z,14.23
2022-12-07T01:11:29.088Z,17.35
2022-12-07T01:13:57.723Z,15.38
2022-12-07T01:16:26.969Z,15.10
2022-12-07T01:18:55.036Z,15.82
2022-12-07T01:21:24.287Z,14.45
2022-12-07T01:23:51.908Z,15.85
2022-12-07T01:26:21.436Z,14.85
2022-12-07T01:28:48.179Z,15.00
2022-12-07T01:31:19.923Z,14.65
2022-12-07T01:33:49.567Z,16.65
2022-12-07T01:36:28.657Z,14.70
2022-12-07T01:39:01.091Z,14.75
2022-12-07T01:41:31.378Z,16.33
2022-12-07T01:44:12.571Z,16.35
2022-12-07T01:46:39.752Z,15.32
2022-12-07T01:49:10.994Z,14.45
2022-12-07T01:51:40.863Z,17.17
2022-12-07T01:54:07.977Z,16.20
2022-12-07T01:56:34.808Z,15.48
2022-12-07T01:59:01.864Z,16.15
2022-12-07T02:01:29.278Z,15.73
2022-12-07T02:03:56.407Z,14.95
2022-12-07T02:06:26.592Z,16.08
2022-12-07T02:08:54.232Z,14.93
2022-12-07T02:11:21.842Z,14.80
2022-12-07T02:13:49.030Z,18.13
2022-12-07T02:16:35.372Z,16.08
2022-12-07T02:19:39.603Z,16.23
2022-12-07T02:22:41.419Z,13.95
2022-12-07T02:25:35.712Z,18.98
2022-12-07T02:28:19.819Z,15.77
2022-12-07T02:30:49.533Z,15.10
2022-12-07T02:33:30.413Z,13.52
2022-12-07T02:36:03.762Z,14.25
2022-12-07T02:38:41.065Z,15.52
2022-12-07T02:41:36.341Z,13.93
2022-12-07T02:44:07.330Z,17.83
2022-12-07T02:46:45.597Z,14.50
2022-12-07T02:49:12.752Z,15.35
2022-12-07T02:51:44.944Z,14.50
2022-12-07T02:54:16.425Z,14.60
2022-12-07T02:56:42.965Z,15.32
2022-12-07T02:59:31.658Z,14.75
2022-12-07T03:02:07.305Z,16.02
2022-12-07T03:04:49.302Z,12.93
2022-12-07T03:07:28.679Z,14.10
2022-12-07T03:10:20.207Z,12.32
2022-12-07T03:13:03.048Z,13.95
2022-12-07T03:15:46.611Z,12.20
2022-12-07T03:18:17.017Z,16.00
2022-12-07T03:20:46.299Z,12.90
2022-12-07T03:23:15.856Z,11.90
2022-12-07T03:25:47.612Z,16.63
2022-12-07T03:28:19.566Z,11.35
2022-12-07T03:31:08.416Z,12.25
2022-12-07T03:33:46.995Z,11.13
2022-12-07T03:36:22.276Z,12.07
2022-12-07T03:39:04.136Z,12.20
2022-12-07T03:41:37.718Z,12.23
2022-12-07T03:44:08.127Z,11.32
2022-12-07T03:47:02.175Z,11.43
2022-12-07T03:49:46.357Z,10.60
2022-12-07T03:52:27.547Z,13.40
2022-12-07T03:55:03.024Z,15.18
2022-12-07T03:57:31.526Z,10.75
2022-12-07T03:59:58.655Z,12.02
2022-12-07T04:02:28.603Z,13.75
2022-12-07T04:04:56.545Z,11.13
2022-12-07T04:07:23.283Z,11.52
2022-12-07T04:09:49.957Z,10.98
2022-12-07T04:12:16.620Z,12.90
2022-12-07T04:14:43.224Z,11.07
2022-12-07T04:17:10.216Z,12.73
2022-12-07T04:19:36.777Z,11.35
2022-12-07T04:22:04.764Z,11.70
2022-12-07T04:24:31.895Z,11.75
2022-12-07T04:26:58.813Z,11.48
2022-12-07T04:29:26.191Z,10.63
2022-12-07T04:31:53.643Z,10.00
2022-12-07T04:34:20.406Z,11.82
2022-12-07T04:36:47.740Z,10.75
2022-12-07T04:39:29.386Z,10.00
2022-12-07T04:41:56.794Z,12.77
2022-12-07T04:44:24.775Z,12.02
2022-12-07T04:46:52.296Z,10.38
2022-12-07T04:49:20.098Z,14.05
2022-12-07T04:51:47.863Z,9.25
2022-12-07T04:54:16.091Z,12.27
2022-12-07T04:56:44.670Z,11.55
2022-12-07T04:59:12.859Z,11.27
2022-12-07T05:01:39.545Z,11.50
2022-12-07T05:04:06.724Z,11.50
2022-12-07T05:06:33.333Z,12.70
2022-12-07T05:08:59.882Z,13.65
2022-12-07T05:11:41.764Z,11.48
2022-12-07T05:14:18.002Z,12.23
2022-12-07T05:16:46.280Z,10.55
2022-12-07T05:19:13.493Z,12.50
2022-12-07T05:21:40.695Z,10.80
2022-12-07T05:24:10.610Z,10.75
2022-12-07T05:26:37.256Z,10.95
2022-12-07T05:29:04.558Z,11.13
2022-12-07T05:31:31.217Z,14.27
2022-12-07T05:33:57.964Z,12.90
2022-12-07T05:36:24.601Z,13.88
2022-12-07T05:38:51.205Z,11.98
2022-12-07T05:41:38.186Z,9.02
2022-12-07T05:44:05.820Z,10.10
2022-12-07T05:46:32.496Z,10.75
2022-12-07T05:48:59.302Z,10.32
2022-12-07T05:51:25.873Z,11.00
2022-12-07T05:53:52.488Z,11.07
2022-12-07T05:56:19.093Z,10.45
2022-12-07T05:59:04.618Z,10.73
2022-12-07T06:01:31.346Z,10.90
2022-12-07T06:03:57.915Z,12.30
2022-12-07T06:06:24.559Z,12.05
2022-12-07T06:08:51.170Z,10.50
2022-12-07T06:11:36.635Z,11.18
2022-12-07T06:14:03.203Z,10.50
2022-12-07T06:16:29.906Z,11.45
2022-12-07T06:18:56.746Z,12.18
2022-12-07T06:21:23.313Z,11.02
2022-12-07T06:23:49.931Z,9.77
2022-12-07T06:26:16.915Z,9.48
2022-12-07T06:28:43.538Z,11.50
2022-12-07T06:31:13.849Z,9.55
2022-12-07T06:33:42.258Z,10.32
2022-12-07T06:36:09.408Z,10.05
2022-12-07T06:38:36.259Z,10.45
2022-12-07T06:41:03.039Z,10.55
2022-12-07T06:43:30.798Z,9.48
2022-12-07T06:45:57.528Z,12.48
2022-12-07T06:48:24.351Z,8.98
2022-12-07T06:50:54.722Z,14.15
2022-12-07T06:53:22.289Z,11.35
2022-12-07T06:55:48.873Z,10.48
2022-12-07T06:58:15.505Z,9.30
2022-12-07T07:00:42.115Z,10.82
2022-12-07T07:03:08.889Z,13.35
2022-12-07T07:05:35.823Z,13.88
2022-12-07T07:08:21.746Z,11.50
2022-12-07T07:10:49.114Z,10.15
2022-12-07T07:13:15.721Z,8.15
2022-12-07T07:15:42.382Z,9.88
2022-12-07T07:18:09.015Z,8.63
2022-12-07T07:20:35.867Z,11.70
2022-12-07T07:23:02.670Z,10.32
2022-12-07T07:25:29.344Z,11.30
2022-12-07T07:27:55.981Z,9.55
2022-12-07T07:30:22.640Z,9.52
2022-12-07T07:32:49.522Z,8.27
2022-12-07T07:35:16.530Z,10.63
2022-12-07T07:37:43.263Z,10.60
2022-12-07T07:40:11.076Z,9.60
2022-12-07T07:42:37.695Z,10.80
2022-12-07T07:45:05.482Z,11.93
2022-12-07T07:47:32.042Z,8.70
2022-12-07T07:49:58.726Z,11.20
2022-12-07T07:52:25.408Z,10.77
2022-12-07T07:54:51.964Z,10.10
2022-12-07T07:57:18.975Z,9.82
2022-12-07T07:59:45.578Z,10.38
2022-12-07T08:02:17.813Z,11.52
2022-12-07T08:04:44.935Z,11.07
2022-12-07T08:07:12.567Z,9.90
2022-12-07T08:09:39.496Z,9.32
2022-12-07T08:12:06.475Z,10.25
2022-12-07T08:14:33.499Z,13.45
2022-12-07T08:17:00.344Z,11.70
2022-12-07T08:19:27.269Z,9.23
2022-12-07T08:21:53.838Z,13.02
2022-12-07T08:24:20.488Z,11.05
2022-12-07T08:26:47.068Z,11.63
2022-12-07T08:29:13.652Z,14.60
2022-12-07T08:31:40.730Z,11.15
2022-12-07T08:34:07.413Z,11.07
2022-12-07T08:36:34.071Z,10.40
2022-12-07T08:41:47.314Z,10.15
2022-12-07T08:44:13.931Z,11.65
2022-12-07T08:46:50.715Z,11.15
2022-12-07T08:49:32.679Z,11.05
2022-12-07T08:52:00.044Z,10.43
2022-12-07T08:54:27.609Z,10.93
2022-12-07T08:56:59.360Z,10.52
2022-12-07T08:59:27.623Z,12.23
2022-12-07T09:01:54.295Z,9.38
2022-12-07T09:04:21.539Z,12.40
2022-12-07T09:06:48.652Z,9.52
2022-12-07T09:09:15.747Z,9.98
2022-12-07T09:11:42.461Z,11.32
2022-12-07T09:14:09.183Z,11.57
2022-12-07T09:16:35.861Z,18.90
2022-12-07T09:19:02.894Z,12.20
2022-12-07T09:21:29.460Z,13.10
2022-12-07T09:23:56.094Z,12.82
2022-12-07T09:26:22.999Z,17.33
2022-12-07T09:28:49.612Z,10.75
2022-12-07T09:31:25.193Z,13.13
2022-12-07T09:34:00.546Z,11.73
2022-12-07T09:36:28.708Z,11.40
2022-12-07T09:38:55.376Z,13.23
2022-12-07T09:41:23.637Z,15.35
2022-12-07T09:43:50.868Z,13.27
2022-12-07T09:46:19.919Z,16.25
2022-12-07T09:48:48.351Z,11.82
2022-12-07T09:51:25.599Z,13.38
2022-12-07T09:53:58.483Z,12.05
2022-12-07T09:56:25.564Z,12.95
2022-12-07T09:59:02.449Z,11.63
2022-12-07T10:01:32.331Z,12.23
2022-12-07T10:04:19.354Z,11.77
2022-12-07T10:06:46.850Z,13.63
2022-12-07T10:09:15.408Z,10.00
2022-12-07T10:12:04.884Z,11.55
2022-12-07T10:15:05.534Z,10.50
2022-12-07T10:17:41.631Z,13.60
2022-12-07T10:20:22.387Z,11.98
2022-12-07T10:23:01.648Z,12.23
2022-12-07T10:25:34.909Z,13.13
2022-12-07T10:28:18.978Z,11.05
2022-12-07T10:31:04.969Z,10.25
2022-12-07T10:33:38.794Z,11.77
2022-12-07T10:36:18.896Z,11.77
2022-12-07T10:38:52.509Z,12.43
2022-12-07T10:41:20.013Z,12.57
2022-12-07T10:43:55.571Z,11.63
2022-12-07T10:47:08.001Z,12.68
2022-12-07T10:50:02.614Z,12.38
2022-12-07T10:52:47.968Z,15.57
2022-12-07T10:55:48.535Z,14.07
2022-12-07T10:58:28.649Z,14.02
2022-12-07T11:01:10.351Z,11.85
2022-12-07T11:04:02.704Z,14.50
2022-12-07T11:09:16.155Z,19.63
2022-12-07T11:12:08.848Z,14.27
2022-12-07T11:14:49.475Z,15.38
2022-12-07T11:17:23.697Z,19.27
2022-12-07T11:20:02.651Z,17.48
2022-12-07T11:22:45.229Z,15.60
2022-12-07T11:25:25.607Z,13.63
2022-12-07T11:28:26.794Z,15.73
2022-12-07T11:31:12.944Z,25.42
2022-12-07T11:33:50.424Z,15.85
2022-12-07T11:36:41.269Z,16.58
2022-12-07T11:39:17.345Z,15.90
2022-12-07T11:41:45.457Z,14.82
2022-12-07T11:44:18.897Z,16.20
2022-12-07T11:47:14.662Z,17.33
2022-12-07T11:50:02.563Z,17.27
2022-12-07T11:52:45.620Z,19.65
2022-12-07T11:55:24.096Z,15.43
2022-12-07T11:57:58.112Z,16.13
2022-12-07T12:00:24.772Z,13.57
2022-12-07T12:03:12.366Z,13.95
2022-12-07T12:05:40.701Z,14.90
2022-12-07T12:11:30.962Z,12.77
2022-12-07T12:14:38.901Z,14.40
2022-12-07T12:17:12.370Z,11.30
2022-12-07T12:20:19.963Z,13.93
2022-12-07T12:23:00.474Z,12.85
2022-12-07T12:25:37.472Z,12.43
2022-12-07T12:28:04.837Z,15.05
2022-12-07T12:30:35.467Z,10.82
2022-12-07T12:33:27.773Z,13.68
2022-12-07T12:36:19.192Z,10.88
2022-12-07T12:38:59.732Z,11.48
2022-12-07T12:41:39.172Z,11.55
2022-12-07T12:44:20.702Z,11.27
2022-12-07T12:47:00.029Z,11.30
2022-12-07T12:49:26.560Z,9.15
2022-12-07T12:52:00.421Z,15.85
2022-12-07T12:54:32.736Z,10.40
2022-12-07T12:57:27.127Z,7.95
2022-12-07T12:59:53.648Z,8.52
2022-12-07T13:02:25.496Z,10.65
2022-12-07T13:04:53.612Z,12.73
2022-12-07T13:07:57.431Z,10.25
2022-12-07T13:10:30.134Z,9.75
2022-12-07T13:13:11.860Z,8.55
2022-12-07T13:15:51.753Z,7.80
2022-12-07T13:18:30.211Z,8.32
2022-12-07T13:21:03.323Z,11.43
2022-12-07T13:23:45.234Z,10.20
2022-12-07T13:26:21.994Z,12.20
2022-12-07T13:29:10.257Z,7.40
2022-12-07T13:31:57.933Z,8.55
2022-12-07T13:34:35.412Z,7.93
2022-12-07T13:37:31.485Z,7.03
2022-12-07T13:40:19.923Z,9.60
2022-12-07T13:42:46.549Z,8.05
2022-12-07T13:45:48.501Z,8.35
2022-12-07T13:48:47.459Z,7.50
2022-12-07T13:51:26.246Z,8.93
2022-12-07T13:54:01.198Z,12.07
2022-12-07T13:56:33.943Z,8.50
2022-12-07T13:59:00.962Z,8.68
2022-12-07T14:01:28.997Z,9.25
2022-12-07T14:03:55.607Z,10.65
2022-12-07T14:06:26.459Z,7.85
2022-12-07T14:09:08.386Z,9.45
2022-12-07T14:11:36.238Z,9.75
2022-12-07T14:14:04.249Z,10.00
2022-12-07T14:16:34.219Z,10.73
2022-12-07T14:19:03.543Z,7.90
2022-12-07T14:21:32.315Z,8.20
2022-12-07T14:24:19.797Z,11.27
2022-12-07T14:26:48.641Z,6.38
2022-12-07T14:29:32.141Z,9.98
2022-12-07T14:32:11.700Z,10.18
2022-12-07T14:34:38.312Z,12.77
2022-12-07T14:37:08.018Z,12.40
2022-12-07T14:39:34.559Z,8.50
2022-12-07T14:42:01.271Z,11.80
2022-12-07T14:44:32.352Z,8.18
2022-12-07T14:49:48.757Z,7.97
2022-12-07T14:55:15.688Z,8.30
2022-12-07T14:57:42.294Z,9.30
2022-12-07T15:00:13.949Z,12.07
2022-12-07T15:02:40.523Z,9.75
2022-12-07T15:05:12.503Z,9.70
2022-12-07T15:07:42.636Z,9.40
2022-12-07T15:10:33.152Z,9.45
2022-12-07T15:13:22.383Z,8.05
2022-12-07T15:15:50.807Z,7.90
2022-12-07T15:18:17.839Z,9.18
2022-12-07T15:20:45.273Z,9.25
2022-12-07T15:23:12.658Z,9.40
2022-12-07T15:25:44.284Z,9.80
2022-12-07T15:28:10.948Z,10.10
2022-12-07T15:30:43.698Z,10.20
2022-12-07T15:33:11.296Z,10.88
2022-12-07T15:35:45.511Z,8.25
2022-12-07T15:38:12.320Z,9.32
2022-12-07T15:40:38.967Z,9.50
2022-12-07T15:43:05.823Z,10.75
2022-12-07T15:45:32.385Z,9.68
2022-12-07T15:50:45.999Z,8.15
2022-12-07T15:53:12.639Z,11.25
2022-12-07T15:55:42.474Z,12.40
2022-12-07T15:58:09.035Z,11.57
2022-12-07T16:00:35.664Z,8.75
2022-12-07T16:03:02.335Z,8.57
2022-12-07T16:05:29.028Z,10.00
2022-12-07T16:07:55.636Z,10.20
2022-12-07T16:10:22.291Z,10.80
2022-12-07T16:12:48.880Z,11.82
2022-12-07T16:15:18.904Z,11.20
2022-12-07T16:17:49.484Z,10.13
2022-12-07T16:20:16.134Z,8.65
2022-12-07T16:22:42.713Z,11.25
2022-12-07T16:25:09.568Z,9.60
2022-12-07T16:27:36.233Z,9.40
2022-12-07T16:30:02.876Z,9.45
2022-12-07T16:32:29.423Z,15.15
2022-12-07T16:34:56.176Z,10.60
2022-12-07T16:37:22.751Z,8.70
2022-12-07T16:39:49.349Z,12.32
2022-12-07T16:42:15.906Z,11.77
2022-12-07T16:44:42.526Z,10.10
2022-12-07T16:47:09.497Z,10.77
2022-12-07T16:49:36.140Z,12.75
2022-12-07T16:52:19.172Z,11.02
2022-12-07T16:54:47.153Z,10.65
2022-12-07T16:57:18.359Z,11.98
2022-12-07T16:59:48.853Z,10.93
2022-12-07T17:02:15.491Z,11.85
2022-12-07T17:04:43.237Z,10.30
2022-12-07T17:07:10.358Z,9.05
2022-12-07T17:09:37.603Z,7.80
2022-12-07T17:12:04.406Z,12.10
2022-12-07T17:14:52.408Z,15.68
2022-12-07T17:17:18.968Z,10.48
2022-12-07T17:19:46.312Z,13.55
2022-12-07T17:22:13.585Z,12.35
2022-12-07T17:24:40.691Z,14.43
2022-12-07T17:27:07.280Z,10.95
2022-12-07T17:29:34.252Z,11.73
2022-12-07T17:32:00.971Z,11.70
2022-12-07T17:34:27.603Z,12.13
2022-12-07T17:36:55.590Z,12.13
2022-12-07T17:39:22.320Z,14.13
2022-12-07T17:42:07.546Z,13.90
2022-12-07T17:44:34.253Z,10.88
2022-12-07T17:47:03.226Z,13.23
2022-12-07T17:49:30.070Z,10.27
2022-12-07T17:52:15.291Z,11.70
2022-12-07T17:54:42.038Z,12.52
2022-12-07T17:57:08.908Z,10.80
2022-12-07T17:59:35.564Z,11.98
2022-12-07T18:02:02.261Z,15.38
2022-12-07T18:04:28.897Z,12.70
2022-12-07T18:06:55.627Z,13.00
2022-12-07T18:09:22.683Z,11.68
2022-12-07T18:11:49.421Z,12.98
2022-12-07T18:14:16.722Z,13.07
2022-12-07T18:16:43.714Z,12.23
2022-12-07T18:19:13.374Z,11.35
2022-12-07T18:21:40.433Z,11.73
2022-12-07T18:24:09.927Z,13.80
2022-12-07T18:26:37.400Z,16.73
2022-12-07T18:29:05.865Z,16.77
2022-12-07T18:31:32.838Z,15.00
2022-12-07T18:34:14.462Z,14.80
2022-12-07T18:36:43.717Z,14.43
2022-12-07T18:39:10.304Z,16.73
2022-12-07T18:41:37.780Z,18.77
2022-12-07T18:44:05.682Z,14.15
2022-12-07T18:46:33.107Z,15.43
2022-12-07T18:49:00.531Z,16.02
2022-12-07T18:51:32.421Z,17.38
2022-12-07T18:54:01.198Z,15.57
2022-12-07T18:56:28.234Z,19.45
2022-12-07T18:59:15.995Z,16.38
2022-12-07T19:01:44.246Z,16.63
2022-12-07T19:04:11.207Z,20.02
2022-12-07T19:06:37.923Z,19.92
2022-12-07T19:09:04.595Z,18.70
2022-12-07T19:11:51.786Z,20.25
2022-12-07T19:14:36.780Z,20.00
2022-12-07T19:17:07.366Z,19.60
2022-12-07T19:19:54.273Z,16.42
2022-12-07T19:22:22.931Z,19.33
2022-12-07T19:24:52.187Z,17.33
2022-12-07T19:27:20.343Z,16.85
2022-12-07T19:29:48.035Z,17.55
2022-12-07T19:32:15.210Z,18.70
2022-12-07T19:34:44.556Z,17.55
2022-12-07T19:37:12.846Z,18.85
2022-12-07T19:39:40.994Z,16.30
2022-12-07T19:42:08.199Z,16.88
2022-12-07T19:44:34.868Z,19.98
2022-12-07T19:47:05.217Z,18.75
2022-12-07T19:49:34.343Z,18.33
2022-12-07T19:52:04.272Z,21.33
2022-12-07T19:54:31.920Z,18.20
2022-12-07T19:56:58.884Z,18.02
2022-12-07T19:59:28.143Z,18.08
2022-12-07T20:01:55.476Z,17.58
2022-12-07T20:04:25.337Z,16.92
2022-12-07T20:06:54.884Z,16.27
2022-12-07T20:09:21.776Z,17.58
2022-12-07T20:12:07.367Z,16.88
2022-12-07T20:14:34.379Z,15.88
2022-12-07T20:17:01.618Z,17.73
2022-12-07T20:19:28.431Z,17.15
2022-12-07T20:21:55.526Z,17.02
2022-12-07T20:24:24.805Z,17.67
2022-12-07T20:26:52.967Z,16.95
2022-12-07T20:29:22.355Z,16.08
2022-12-07T20:31:49.605Z,14.82
2022-12-07T20:34:16.484Z,14.45
2022-12-07T20:36:43.305Z,15.85
2022-12-07T20:39:10.299Z,15.55
2022-12-07T20:41:55.433Z,17.80
2022-12-07T20:44:22.019Z,16.33
2022-12-07T20:46:49.350Z,14.52
2022-12-07T20:49:17.034Z,14.60
2022-12-07T20:51:44.384Z,16.52
2022-12-07T20:54:11.388Z,14.93
2022-12-07T20:56:38.163Z,15.43
2022-12-07T20:59:07.348Z,14.70
2022-12-07T21:01:33.978Z,14.43
2022-12-07T21:04:01.676Z,15.45
2022-12-07T21:06:29.778Z,14.70
2022-12-07T21:08:58.872Z,15.15
2022-12-07T21:11:26.979Z,14.70
2022-12-07T21:13:53.600Z,15.68
2022-12-07T21:16:24.353Z,15.05
2022-12-07T21:18:51.210Z,15.48
2022-12-07T21:21:19.963Z,13.13
2022-12-07T21:23:49.035Z,15.18
2022-12-07T21:26:21.638Z,17.10
2022-12-07T21:28:49.344Z,16.60
2022-12-07T21:31:16.538Z,15.00
2022-12-07T21:33:44.409Z,14.60
2022-12-07T21:36:13.525Z,15.35
2022-12-07T21:38:40.091Z,16.80
2022-12-07T21:41:19.647Z,15.77
2022-12-07T21:43:47.592Z,16.50
2022-12-07T21:46:15.144Z,13.85
2022-12-07T21:48:41.934Z,14.82
2022-12-07T21:51:11.186Z,14.38
2022-12-07T21:53:38.939Z,14.35
2022-12-07T21:56:13.487Z,15.70
2022-12-07T21:58:40.039Z,16.05
2022-12-07T22:01:06.617Z,13.88
2022-12-07T22:03:33.232Z,16.98
2022-12-07T22:06:01.108Z,12.75
2022-12-07T22:08:28.317Z,15.50
2022-12-07T22:10:54.916Z,15.75
2022-12-07T22:13:21.572Z,14.65
2022-12-07T22:15:48.166Z,14.18
2022-12-07T22:18:14.846Z,21.05
2022-12-07T22:20:41.423Z,15.45
2022-12-07T22:23:07.999Z,14.02
2022-12-07T22:25:34.568Z,13.93
2022-12-07T22:28:01.169Z,13.98
2022-12-07T22:30:28.431Z,14.05
2022-12-07T22:32:55.067Z,13.23
2022-12-07T22:35:21.876Z,13.55
2022-12-07T22:37:48.433Z,18.83
2022-12-07T22:40:15.960Z,12.80
2022-12-07T22:42:42.512Z,14.27
2022-12-07T22:45:09.794Z,16.80
2022-12-07T22:47:36.345Z,16.30
2022-12-07T22:50:05.247Z,15.25
2022-12-07T22:52:31.822Z,13.65
2022-12-07T22:54:58.360Z,15.35
2022-12-07T22:57:24.928Z,13.32
2022-12-07T22:59:51.479Z,16.17
2022-12-07T23:02:18.024Z,13.30
2022-12-07T23:04:44.724Z,15.77
2022-12-07T23:07:12.332Z,15.60
2022-12-07T23:09:38.957Z,14.98
2022-12-07T23:12:24.280Z,15.48
2022-12-07T23:14:53.802Z,12.38
2022-12-07T23:17:20.414Z,15.43
2022-12-07T23:19:51.287Z,14.30
2022-12-07T23:22:20.847Z,14.43
2022-12-07T23:24:47.383Z,16.00
2022-12-07T23:27:13.976Z,16.67
2022-12-07T23:29:40.693Z,15.95
2022-12-07T23:32:07.367Z,14.95
2022-12-07T23:34:34.003Z,14.73
2022-12-07T23:37:00.569Z,16.13
2022-12-07T23:39:27.140Z,15.27
2022-12-07T23:41:53.758Z,15.18
2022-12-07T23:44:20.391Z,15.63
2022-12-07T23:46:47.015Z,15.40
2022-12-07T23:49:13.714Z,16.67
2022-12-07T23:51:40.536Z,14.32
2022-12-07T23:54:07.181Z,14.60
2022-12-07T23:56:34.355Z,14.15
2022-12-07T23:59:02.017Z,14.15
